Tagus, North Dakota
Current Conditions -  °F | °C
As of 5:58 PM on Friday 28 Nov 2014 (Local Time) from KMIB Reporting Station
Scattered Clouds Scattered Clouds  
Wind Chill: -4°   Ceiling: Unl
Heat Index: 11°   Visibility: 10mi
Dew Point:   Wind: 13mph
Humidity: 88%   Direction: 140°SE
Pressure: 29.52"   Gusts: NA
Location:  48.3281°N, 101.856°W
Report Text: KMIB 282358Z AUTO 14011KT 10SM FEW010 SCT085 M12/M13 A2952 RMK AO2 VIS 3/4 RWY29 SLP037 60000 T11161132 11104 21120 57025
Loading
Personal Weather Stations






























Interactive Weather Map New forecast layout! Learn more

10-Day Weather Forecast

Advertisements
Track Severe Weather on mobile